Werte bis 5 Uhr SommerzeitDiagramme Ober-Erlenbach: Tagesdaten Monatsdaten WindroseCSV-Datei: Ober-Erlenbach20.csv

Wetterdaten 2020 Station: Ober-Erlenbach
Temperaturen in °C relative Nieder- Global- Wind Wind Wind- Sonnen-
Datum Boden Boden Luft Luft Luft Luft Feuchte schlag strahlung max richtung schein
20 cm 5 cm 20 cm 2 m 2 m max 2 m min % mm W/m2*d m/s m/s ° h

07.08.2020 23,7 23,5 17,5 18,9 20,4 17,5 62 0,0 0 1,2 3,4 5 ---
06.08.2020 22,5 24,0 23,0 22,6 31,2 12,9 48 0,0 7240 1,5 6,7 351 12,2
05.08.2020 21,7 22,5 20,9 20,1 28,6 10,4 49 0,0 7196 1,6 7,2 94 12,1
04.08.2020 21,6 21,9 20,2 19,4 26,0 13,8 49 0,0 5473 2,4 12,6 344 12,0
03.08.2020 22,1 21,4 19,4 19,1 23,3 14,8 61 0,0 3156 2,5 7,6 5 10,5
02.08.2020 23,2 23,4 22,9 22,5 26,8 18,5 61 2,0 4368 2,5 12,6 339 8,8
01.08.2020 23,6 24,8 25,0 24,7 31,4 8,9 53 0,0 3976 1,7 9,0 344 9,6
31.07.2020 23,0 25,0 25,1 24,9 39,6 14,3 42 0,0 7564 1,8 5,1 32 12,5
30.07.2020 22,2 23,6 22,1 21,7 35,9 12,2 46 0,0 7452 1,9 6,3 --- 12,4
29.07.2020 21,7 22,6 22,1 20,3 27,3 11,6 48 0,0 7530 2,2 12,0 283 12,6
28.07.2020 21,7 22,3 24,0 22,7 28,4 17,4 50 0,0 4766 3,1 11,5 239 11,9
27.07.2020 21,4 21,4 21,7 21,3 30,0 12,5 58 0,0 4650 1,8 8,3 144 12,1
26.07.2020 22,5 22,7 22,2 20,9 25,4 17,2 65 3,8 5570 3,1 12,6 256 11,1
25.07.2020 22,5 23,8 24,2 22,5 27,7 17,3 52 0,0 4688 1,9 7,4 230 10,6
24.07.2020 22,5 23,6 23,4 21,8 28,7 15,3 47 0,0 4706 2,0 8,5 296 10,5
23.07.2020 22,1 23,4 21,0 20,3 26,9 13,2 45 0,0 7531 2,4 6,8 358 12,2
22.07.2020 21,8 22,8 19,9 19,3 26,7 9,1 46 0,0 7811 2,1 7,5 13 12,5
21.07.2020 21,6 22,7 20,5 19,6 25,9 12,0 46 0,0 8104 2,6 9,0 344 12,6
20.07.2020 21,7 22,8 20,9 20,5 27,0 15,9 59 0,0 5324 2,2 9,1 347 10,8
19.07.2020 21,2 22,7 23,0 21,9 30,1 12,4 51 0,0 6298 1,5 10,4 267 12,3
18.07.2020 20,3 22,1 22,2 21,1 28,5 13,6 55 0,0 6912 1,2 5,8 32 11,5
17.07.2020 19,4 19,7 18,8 18,0 24,4 11,6 72 0,2 4652 1,5 5,4 355 8,9
16.07.2020 20,0 18,9 16,0 15,5 17,3 13,9 82 0,4 1415 0,9 2,9 149 4,1
15.07.2020 20,9 20,8 19,0 17,5 23,3 14,4 71 2,3 5028 2,1 9,1 258 10,3
14.07.2020 21,2 22,1 21,1 19,9 28,5 11,0 53 1,1 5141 2,0 11,8 319 9,0
13.07.2020 20,7 22,2 20,0 19,3 27,0 9,6 49 0,0 8005 1,6 6,5 6 13,0
12.07.2020 20,2 21,1 18,5 17,8 24,9 9,8 52 0,0 7778 2,1 6,8 10 13,1
11.07.2020 20,1 20,6 17,6 16,8 22,3 10,3 59 0,0 6279 2,1 7,4 344 12,1
10.07.2020 20,3 21,1 21,8 20,2 24,9 16,1 65 0,0 3840 3,1 12,6 255 10,3
09.07.2020 19,4 20,3 22,8 21,3 29,8 15,2 70 0,0 5955 3,1 11,3 211 11,2
08.07.2020 19,9 19,0 15,4 15,0 16,6 13,6 86 3,6 1163 0,9 6,0 167 2,9
07.07.2020 20,0 20,1 18,4 16,6 22,8 8,0 56 0,0 5713 1,4 7,5 244 12,1
06.07.2020 20,9 21,0 18,9 16,8 21,3 10,3 58 0,2 5703 3,9 15,5 269 12,2
05.07.2020 20,8 22,2 23,7 22,4 27,5 18,4 63 0,0 4665 4,7 13,5 217 8,4
04.07.2020 20,4 21,0 21,2 19,5 25,9 12,1 57 0,0 5434 3,7 12,1 209 10,7
03.07.2020 20,6 21,3 20,9 18,6 24,7 11,5 60 0,0 6151 2,1 7,6 229 12,4
02.07.2020 20,7 22,2 22,4 20,3 26,6 15,3 69 1,4 6856 3,1 11,9 229 11,8
01.07.2020 19,5 20,9 23,0 21,1 28,0 13,7 64 0,0 6546 3,1 11,5 199 11,7
30.06.2020 19,3 18,9 19,2 17,4 22,7 10,7 60 0,0 5392 3,1 11,7 200 13,4
29.06.2020 19,8 19,4 18,8 17,4 24,6 12,6 68 1,5 6456 2,9 15,7 214 11,8
28.06.2020 20,9 20,9 19,7 19,0 23,3 14,5 73 0,5 2831 2,6 12,4 216 7,8
27.06.2020 21,4 22,5 23,5 22,4 28,2 16,9 72 1,4 5537 2,7 10,0 203 11,1
26.06.2020 20,8 22,4 22,5 21,8 29,1 13,7 61 0,0 7981 2,0 12,1 44 11,9
25.06.2020 20,6 21,8 21,3 21,2 26,9 15,0 64 0,0 6148 1,8 7,7 26 12,6
24.06.2020 20,2 21,8 21,3 21,0 27,4 13,2 54 0,0 8424 2,2 7,2 21 13,2
23.06.2020 19,7 21,2 20,2 20,0 26,5 11,8 61 0,0 8418 1,9 6,6 17 13,3
22.06.2020 19,5 20,8 19,9 19,7 25,3 14,4 69 0,0 5758 1,9 7,8 339 12,1
21.06.2020 19,2 20,2 20,0 19,6 26,7 10,9 62 0,0 6390 1,2 10,2 304 12,3
20.06.2020 19,1 20,4 20,3 19,2 24,6 14,6 66 0,0 6211 1,7 10,1 315 12,9
19.06.2020 18,8 19,6 19,8 18,2 24,4 11,8 71 0,0 5727 1,9 9,1 250 12,4
18.06.2020 18,8 19,8 18,7 17,6 22,1 13,8 81 0,1 5277 2,0 6,3 212 11,9
17.06.2020 18,3 19,8 18,2 17,6 25,1 12,9 88 6,4 5188 1,8 6,7 31 9,2
16.06.2020 18,0 18,5 17,3 16,9 20,1 15,4 93 5,7 1911 0,9 3,0 207 7,7
15.06.2020 18,2 18,5 18,0 17,7 20,7 16,2 80 0,7 1783 1,7 6,8 270 6,6
14.06.2020 18,9 19,6 19,0 18,4 21,0 15,2 77 11,0 2453 2,6 11,4 296 9,8
13.06.2020 18,4 20,9 23,1 21,9 27,4 16,6 60 3,4 7312 2,9 14,1 291 11,5
12.06.2020 16,8 18,6 19,9 19,5 27,6 10,2 71 0,0 8085 2,3 7,8 36 13,1
11.06.2020 16,5 16,9 15,2 15,0 17,7 12,6 87 2,5 2578 1,8 5,0 9 7,9
10.06.2020 16,4 16,5 14,9 14,8 19,0 12,7 81 0,9 2783 2,6 7,3 --- 7,7
09.06.2020 16,4 16,8 15,3 15,0 20,0 10,0 73 0,4 3830 2,0 6,1 21 10,3
08.06.2020 15,9 16,6 15,0 14,5 23,1 7,0 66 0,0 6154 1,4 6,4 358 10,8
07.06.2020 15,4 15,0 15,4 13,6 18,2 8,7 67 0,0 4679 2,0 7,3 247 12,4
06.06.2020 15,4 14,0 12,4 11,5 17,1 6,5 81 4,0 4631 2,6 12,6 214 9,4
05.06.2020 16,8 15,0 11,9 11,2 14,2 8,5 80 6,9 2326 3,3 12,0 222 7,5
04.06.2020 18,4 17,9 14,6 14,5 18,1 11,8 85 10,5 1371 1,5 9,8 276 3,8
03.06.2020 19,1 20,3 19,5 19,0 27,8 12,8 60 0,4 4922 1,5 13,0 317 9,1
02.06.2020 18,5 20,5 20,3 20,1 28,6 10,0 49 0,0 8036 1,5 5,4 4 12,6
01.06.2020 17,6 19,2 18,4 18,0 25,6 8,5 53 0,0 8440 2,3 10,6 20 13,1
31.05.2020 17,3 18,5 15,8 15,2 20,2 9,5 54 0,0 7426 2,8 9,3 24 12,9
30.05.2020 17,0 17,9 16,2 15,7 20,4 8,6 46 0,0 8442 3,9 15,1 28 12,5
29.05.2020 16,7 17,6 15,9 15,4 21,7 7,0 50 0,0 8237 2,7 14,0 23 13,1
28.05.2020 16,7 18,0 17,0 16,4 21,0 11,5 49 0,0 8550 4,2 10,7 8 13,1
27.05.2020 15,8 17,0 16,6 16,2 23,8 7,2 57 0,0 8072 1,3 5,4 13 12,2
26.05.2020 15,3 16,1 14,6 14,2 20,6 7,0 65 0,0 7414 2,1 7,2 19 12,2
25.05.2020 14,7 15,3 16,5 15,6 20,9 11,6 65 0,1 5939 4,1 11,5 304 11,9
24.05.2020 14,8 13,8 13,8 12,4 17,5 7,5 74 0,0 3711 3,3 11,0 225 9,1
23.05.2020 16,3 16,0 14,3 13,8 17,6 9,8 77 1,8 2309 2,5 11,8 214 7,7
22.05.2020 16,6 17,7 19,3 18,9 24,2 12,4 73 1,4 3128 2,0 10,8 235 11,4
21.05.2020 16,1 17,9 18,3 18,0 25,5 9,3 65 0,0 7903 1,4 5,5 13 12,6
20.05.2020 15,6 17,5 19,0 18,8 23,8 13,9 61 0,0 6573 2,6 8,3 9 12,1
19.05.2020 14,7 16,3 19,1 18,6 25,2 9,7 52 0,0 7111 1,9 10,3 337 12,8
18.05.2020 13,8 14,9 17,0 16,4 24,2 6,2 54 0,0 7678 1,7 6,8 277 12,7
17.05.2020 13,1 14,1 14,2 13,9 20,7 7,7 53 0,0 7825 2,2 7,1 --- 12,8
16.05.2020 12,3 12,9 12,3 12,1 19,3 3,3 55 0,0 7741 1,6 5,3 20 12,5
15.05.2020 11,7 11,8 11,6 11,3 17,1 5,3 52 0,0 7933 3,1 8,8 3 12,0
14.05.2020 11,7 11,4 10,3 9,7 14,8 5,1 63 0,0 7482 4,6 11,2 14 12,5
13.05.2020 11,6 11,3 9,8 9,3 15,2 2,0 61 0,0 5901 2,0 7,6 22 11,5
12.05.2020 11,4 10,5 8,1 7,6 13,5 1,1 63 0,0 6333 1,7 5,0 21 12,1
11.05.2020 13,2 12,1 6,7 6,9 14,6 3,2 84 9,5 1090 4,8 14,8 351 2,7
10.05.2020 13,2 14,3 16,2 15,7 24,4 10,7 83 3,7 4762 1,5 9,9 289 8,5
09.05.2020 13,0 13,5 14,2 14,5 19,3 9,2 69 1,1 2259 1,3 4,1 17 8,1
08.05.2020 12,4 13,6 16,0 16,3 23,7 8,0 53 0,0 6577 1,4 5,5 24 11,4
07.05.2020 11,7 12,0 12,9 13,2 21,5 3,7 56 0,0 7513 1,4 5,4 17 12,3
06.05.2020 11,5 11,4 10,1 10,2 17,1 1,6 54 0,0 7790 1,8 6,5 10 12,4
05.05.2020 11,7 11,7 9,3 9,4 15,1 4,8 60 0,0 7413 3,1 9,4 21 12,5
04.05.2020 11,8 12,0 11,4 11,2 14,0 6,5 83 3,5 2619 1,9 8,6 311 8,8
03.05.2020 11,2 10,8 12,2 11,2 16,8 4,5 72 0,1 5172 1,7 6,4 210 11,6
02.05.2020 11,5 10,4 9,7 8,5 12,7 6,0 85 3,0 4324 3,3 14,3 226 9,8
01.05.2020 11,8 11,1 11,1 10,1 14,2 7,0 85 4,8 4109 3,4 12,5 204 9,8
30.04.2020 12,2 11,9 12,0 11,5 14,9 8,1 85 7,2 3285 3,9 13,6 187 8,4
29.04.2020 12,3 12,2 13,5 12,9 17,4 9,9 76 1,0 3733 2,6 10,6 229 9,5
28.04.2020 12,4 12,2 11,8 12,1 17,5 7,2 77 2,7 2447 1,9 9,9 261 7,8
27.04.2020 12,3 12,6 14,2 14,0 22,5 4,4 52 0,0 6977 2,3 9,9 251 11,2
26.04.2020 12,3 12,5 11,8 12,2 20,8 2,7 54 0,0 7141 1,5 5,6 19 11,8
25.04.2020 12,5 13,1 11,1 11,2 16,7 5,8 55 0,0 7228 2,9 7,8 351 11,8
24.04.2020 12,3 12,8 14,8 14,2 22,5 5,4 52 0,0 5986 2,1 9,3 291 10,8
23.04.2020 12,0 13,0 14,2 14,8 23,5 7,1 43 0,0 7016 2,0 7,1 360 11,7
22.04.2020 11,6 12,3 14,5 14,5 22,3 7,8 40 0,0 7127 4,5 12,6 29 11,7
21.04.2020 11,3 11,7 13,4 13,4 20,8 6,6 39 0,0 7067 5,3 13,6 33 11,7
20.04.2020 11,4 11,5 12,4 12,3 19,2 6,4 40 0,0 6999 5,7 13,3 28 11,6
19.04.2020 11,9 12,5 12,5 12,7 16,3 9,0 70 0,0 3560 3,4 9,6 9 8,5
18.04.2020 11,6 12,6 15,3 15,3 24,1 8,7 67 0,5 3501 1,7 8,1 336 8,0
17.04.2020 10,8 12,3 15,3 16,2 24,9 8,1 52 0,0 5841 1,6 5,3 27 10,5
16.04.2020 9,8 10,3 13,2 13,5 22,9 2,7 52 0,0 6166 2,3 8,4 229 11,1
15.04.2020 9,3 9,1 8,0 8,3 18,2 -0,9 54 0,0 5801 1,2 4,4 13 10,8
14.04.2020 9,8 8,7 5,2 5,4 10,9 -0,1 54 0,0 5664 2,8 9,4 350 11,2
13.04.2020 11,1 10,6 8,4 8,9 13,6 2,2 62 0,7 3102 3,2 10,1 8 9,5
12.04.2020 11,2 11,8 14,5 14,9 23,3 7,5 47 0,0 5021 2,0 9,4 253 9,5
11.04.2020 11,2 12,2 12,3 13,1 22,0 4,1 43 0,0 6333 1,8 4,9 353 11,1
10.04.2020 11,1 12,6 14,4 14,9 21,3 7,5 53 0,0 6054 2,5 7,8 23 10,4
09.04.2020 10,6 12,2 15,0 15,7 24,6 7,4 51 0,0 5204 1,7 6,2 25 9,0
08.04.2020 9,9 11,7 14,1 15,6 23,9 6,5 54 0,0 5742 1,5 5,1 7 10,6
07.04.2020 8,9 10,5 13,8 14,6 22,7 6,4 57 0,0 5470 2,3 7,3 21 9,9
06.04.2020 8,0 8,8 12,5 13,4 22,3 4,6 45 0,0 5866 2,3 8,7 238 10,8
05.04.2020 7,4 8,1 9,7 10,7 18,6 2,1 51 0,0 5912 2,2 10,1 48 10,7
04.04.2020 6,7 7,3 7,0 7,9 14,8 0,0 57 0,0 5794 1,4 5,6 13 10,7
03.04.2020 6,5 6,3 7,7 7,4 11,7 3,2 63 0,0 2324 2,6 7,7 234 6,7
02.04.2020 6,2 6,2 6,2 6,2 14,1 -1,7 55 0,0 5535 2,2 10,2 13 10,4
01.04.2020 6,0 5,5 2,8 3,5 10,9 -4,2 50 0,0 5712 1,5 5,7 347 10,6
31.03.2020 6,2 6,2 4,3 4,3 8,4 -0,5 58 0,0 5616 3,2 13,9 17 10,5
30.03.2020 5,8 4,9 3,2 3,0 8,8 -2,8 46 0,0 5684 3,2 9,6 6 10,2
29.03.2020 6,9 5,9 4,4 4,4 7,8 1,3 65 0,0 2484 5,3 13,6 14 7,2
28.03.2020 6,8 7,8 10,7 11,1 17,0 5,8 51 0,0 5026 3,7 11,3 350 10,0
27.03.2020 5,7 6,2 9,5 9,7 16,3 3,5 51 0,0 4965 4,0 8,9 18 10,0
26.03.2020 5,1 4,4 4,7 4,8 10,7 -0,4 50 0,0 4979 4,0 10,7 13 9,4
25.03.2020 5,1 4,0 3,5 3,9 10,8 -1,8 41 0,0 5365 3,6 10,5 33 10,2
24.03.2020 5,3 3,9 2,1 2,6 8,9 -2,7 44 0,0 5383 2,9 12,8 45 10,2
23.03.2020 5,9 4,1 1,9 2,2 7,8 -2,2 46 0,0 5322 3,2 11,4 75 10,1
22.03.2020 6,8 4,9 3,3 3,3 8,8 -0,7 50 0,0 5317 4,6 10,1 55 10,1
21.03.2020 8,6 7,0 4,7 4,8 7,0 1,2 75 2,5 1655 6,1 14,0 31 5,9
20.03.2020 9,2 10,0 10,3 10,5 13,9 6,3 76 0,0 3498 4,1 10,9 3 7,8
19.03.2020 8,6 9,6 9,9 10,6 17,5 5,2 74 0,0 3957 1,3 4,9 18 8,0
18.03.2020 8,2 8,6 9,5 10,1 17,7 3,4 78 0,0 3289 1,3 8,5 245 8,8
17.03.2020 7,9 9,1 10,6 11,4 16,9 7,4 72 0,0 2934 1,4 7,1 336 8,4
16.03.2020 6,9 7,2 8,7 9,4 16,4 2,7 70 0,0 3983 1,9 6,5 281 9,1
15.03.2020 6,6 6,5 6,7 7,2 14,6 0,8 70 0,0 4094 1,6 7,6 263 9,1
14.03.2020 6,8 6,2 4,8 5,2 11,2 1,2 85 0,1 2743 1,2 4,7 349 6,7
13.03.2020 7,3 6,2 6,4 6,4 10,3 3,5 72 0,0 2491 4,3 14,0 247 7,6
12.03.2020 8,2 8,8 10,3 10,4 12,8 6,1 73 1,7 1849 4,9 16,8 234 6,9
11.03.2020 7,2 8,9 12,4 12,8 14,7 10,8 85 0,8 636 5,1 13,1 201 0,2
10.03.2020 6,1 5,8 6,6 6,7 10,8 4,3 96 8,8 687 5,6 14,6 187 1,3
09.03.2020 6,2 6,6 7,6 7,5 10,9 4,5 79 2,3 2228 2,4 10,2 241 6,6
08.03.2020 5,5 5,4 6,9 6,9 10,3 3,6 77 0,1 1900 4,0 11,7 190 6,7
07.03.2020 5,4 5,0 5,9 5,7 8,6 3,3 71 0,0 2170 3,2 11,9 277 6,6
06.03.2020 5,5 5,1 5,5 5,8 7,7 4,8 87 3,8 541 4,0 11,8 263 0,5
05.03.2020 5,2 4,4 4,3 4,5 6,4 1,8 94 9,4 644 2,0 8,4 98 0,4
04.03.2020 5,4 4,3 4,3 4,0 9,1 0,7 86 0,1 2208 3,2 8,8 213 6,1
03.03.2020 6,0 5,6 5,6 5,3 8,3 1,4 74 0,8 2724 3,2 11,5 252 7,0
02.03.2020 5,9 5,9 5,9 6,0 9,8 1,5 83 2,0 2461 3,1 12,7 249 6,2
01.03.2020 5,5 5,7 7,6 7,3 10,7 4,7 78 2,6 2687 5,3 15,6 217 6,8
29.02.2020 4,7 5,1 7,1 7,3 13,4 3,2 83 5,9 1737 3,9 19,3 215 5,7
28.02.2020 4,1 3,1 4,1 3,7 6,3 1,4 78 2,7 2697 4,5 16,5 245 7,8
27.02.2020 4,9 3,1 2,0 2,0 4,3 -0,1 91 5,0 691 3,9 9,8 235 1,3
26.02.2020 5,9 4,3 3,1 3,3 5,6 2,0 84 2,7 824 4,4 12,6 229 1,9
25.02.2020 6,4 6,9 8,3 8,3 10,7 4,9 80 1,1 1755 5,2 12,0 234 6,4
24.02.2020 6,1 5,6 6,0 6,4 10,3 4,1 86 1,4 483 2,5 9,4 263 0,2
23.02.2020 5,7 6,8 9,2 9,7 13,1 7,2 85 4,5 607 7,2 21,6 263 1,6
22.02.2020 4,8 4,0 6,0 6,2 9,9 1,7 75 0,0 1648 5,5 15,6 221 4,6
21.02.2020 5,1 4,5 5,9 5,4 8,0 2,7 72 1,9 2285 4,8 16,7 235 6,7
20.02.2020 4,8 4,2 5,7 5,9 8,8 2,9 83 1,5 784 4,6 13,2 222 2,0
19.02.2020 5,4 4,4 4,7 5,3 6,7 2,1 74 1,7 667 3,8 14,4 229 0,9
18.02.2020 5,7 5,2 6,2 6,3 8,1 5,0 78 0,1 1531 5,3 12,5 210 5,2
17.02.2020 6,1 6,5 7,5 8,0 15,0 4,4 83 3,1 523 4,4 14,9 259 0,6
16.02.2020 5,0 5,8 10,5 11,3 15,9 6,6 65 0,0 1356 5,7 16,0 217 4,2
15.02.2020 4,2 4,1 5,4 5,6 10,2 1,9 87 0,0 1997 2,2 9,3 216 6,2
14.02.2020 3,9 3,9 5,4 6,0 7,2 3,5 81 0,2 804 2,4 9,7 242 1,9
13.02.2020 3,4 2,0 2,3 2,6 4,9 0,2 95 4,3 392 3,0 14,7 190 ---
12.02.2020 3,9 2,4 3,5 3,7 6,4 1,5 77 0,1 1615 5,0 15,0 231 5,3
11.02.2020 4,7 3,5 4,4 4,8 7,9 1,0 69 3,7 1632 7,1 23,5 250 4,9
10.02.2020 5,0 5,7 7,9 8,1 12,2 4,2 76 13,9 1586 8,6 28,1 240 4,1
09.02.2020 3,2 3,1 6,3 6,8 12,4 0,5 79 0,0 1303 5,6 23,1 227 3,6
08.02.2020 3,0 1,2 1,0 1,5 5,0 -1,8 86 0,1 1086 1,6 5,2 255 4,2
07.02.2020 3,4 1,5 -0,1 0,6 5,8 -2,8 89 0,1 2305 1,4 4,9 340 7,0
06.02.2020 4,2 2,0 -0,5 0,0 3,3 -2,2 94 0,0 679 0,9 2,5 359 1,8
05.02.2020 5,2 3,7 3,3 4,0 8,7 -0,7 73 0,0 2342 2,1 7,7 332 7,0
04.02.2020 6,4 5,3 4,3 4,5 7,2 2,8 85 7,8 1033 4,0 13,3 289 3,8
03.02.2020 6,7 7,1 9,3 9,8 11,7 7,2 81 6,0 817 4,1 13,3 226 2,5
02.02.2020 6,5 6,4 8,1 8,8 13,5 5,4 83 6,4 300 3,7 11,8 221 ---
01.02.2020 6,5 7,9 10,1 10,7 11,7 7,2 88 10,3 190 5,2 15,5 222 ---
31.01.2020 4,9 6,8 10,9 11,2 14,0 6,9 88 0,5 1137 5,0 11,3 224 4,0
30.01.2020 3,4 3,2 5,4 5,4 8,0 2,6 89 0,3 1249 4,3 9,8 206 4,4
29.01.2020 3,5 2,4 3,1 3,5 6,2 1,3 82 0,2 669 4,3 14,9 226 1,4
28.01.2020 3,9 3,8 4,6 4,9 6,6 1,4 85 6,1 878 5,6 15,7 217 2,3
27.01.2020 2,9 2,8 4,1 4,0 6,4 1,8 99 8,8 260 3,3 10,6 217 ---
26.01.2020 2,5 1,7 1,3 1,0 2,0 0,1 100 0,2 344 1,8 5,7 248 ---
25.01.2020 2,2 1,1 0,4 0,1 0,9 -0,9 100 0,0 267 0,9 3,4 256 ---
24.01.2020 2,1 0,6 0,1 -0,1 0,4 -0,6 93 0,0 280 1,9 5,5 216 ---
23.01.2020 2,2 0,4 0,2 0,4 3,6 -1,2 94 0,0 901 1,2 4,0 32 3,4
22.01.2020 2,6 0,4 -2,6 -2,8 -1,1 -5,0 99 0,0 328 0,9 3,0 347 ---
21.01.2020 3,3 1,0 -1,1 -0,3 5,1 -3,7 89 0,1 1844 1,1 3,0 11 6,5
20.01.2020 4,0 2,8 2,8 3,1 5,8 -0,9 81 0,0 1473 2,4 5,6 355 5,2
19.01.2020 4,1 2,7 2,8 3,3 5,3 1,6 86 0,0 702 1,9 5,9 347 2,2
18.01.2020 4,6 3,3 3,2 3,8 5,9 1,1 87 0,1 827 2,5 7,5 221 2,3
17.01.2020 5,1 3,6 3,5 4,5 6,6 1,3 94 0,2 704 2,0 6,7 248 1,9
16.01.2020 5,6 5,8 7,4 8,5 12,8 4,9 89 0,9 1286 1,5 9,1 246 4,5
15.01.2020 5,0 5,1 8,4 8,9 12,3 5,9 73 0,0 1429 2,7 8,0 233 5,4
14.01.2020 4,6 4,2 6,1 6,7 8,8 3,9 80 0,0 571 4,0 10,7 218 1,2
13.01.2020 4,2 3,8 4,8 4,9 5,8 4,2 95 0,0 335 3,0 7,4 204 0,7
12.01.2020 4,1 2,3 1,9 2,0 4,9 -1,0 94 0,1 395 3,6 13,5 215 0,5
11.01.2020 5,2 3,8 2,9 3,3 6,1 0,0 86 0,0 1163 1,8 8,0 232 4,1
10.01.2020 5,7 6,2 7,2 7,7 10,3 5,0 90 1,5 722 3,4 11,8 250 1,9
09.01.2020 4,6 5,4 7,9 8,1 9,8 5,9 100 14,7 36 3,0 7,1 212 ---
08.01.2020 3,8 3,2 3,9 4,0 6,0 2,7 99 1,9 193 3,9 9,7 221 ---
07.01.2020 3,6 2,6 2,8 2,8 6,8 -0,5 97 0,0 684 2,0 6,2 221 2,0
06.01.2020 3,9 3,1 2,0 1,8 4,4 -1,1 100 0,1 315 1,6 6,2 205 ---
05.01.2020 3,6 3,4 4,3 4,5 6,1 3,7 99 1,0 212 1,4 6,3 232 ---
04.01.2020 3,1 2,8 4,2 5,1 8,1 3,6 85 0,0 254 3,5 12,2 251 ---
03.01.2020 2,1 1,2 3,4 3,8 8,3 0,5 97 0,8 192 3,2 9,9 224 ---
02.01.2020 2,1 0,3 -1,2 -1,2 0,5 -3,3 100 0,1 170 2,2 6,0 226 ---
01.01.2020 2,4 0,5 -1,0 -0,3 3,5 -2,5 95 0,0 1352 1,1 2,5 358 5,6

Mittelwerte (Temperaturen, Strahlung, rel. Feuchte, Wind), Summe (Regen) für 2020
11,6 11,8 11,8 11,6 69 270 3.986 2,8

Landesbetrieb Landwirtschaft Hessen 2009

      Werte bis 5 Uhr SommerzeitCSV-Datei: Ober-Erlenbach20.csvDiagramm: Ober-Erlenbach